logo
Search for airport 
image banner adimage banner adimage banner ad
image banner ad

OTBH - Al-Udaid Airbase

Located in Doha, Qatar

ICAO - OTBH, IATA - XJD

Data provided by Airmate  

General information

Coordinates: N25°7'6" E51°18'47"
Elevation is 132 feet MSL.
 
View others Airports in Ar Rayyan Municipality

Operational data

Special qualification required
Current time UTC:
Current local time:
Weather
METAR: OTBH 241855Z 13006KT 9999 CLR 27/11 A2967 Q1005 RMK AO2A SLP048 T02740110 FZRANO $
TAF: TAF OTBH 241600Z 2416/2522 01016KT 9999 SKC QNH2963INS BECMG 2418/2419 22009KT 9999 SKC QNH2967INS BECMG 2503/2504 32010G15KT 9999 SKC QNH2970INS BECMG 2513/2514 06009KT 9999 SKC QNH2967INS TX33/2515Z TN24/2505Z
View NOTAMs / SUP AIP / TFR affecting this airport [VIEW]
Communications frequencies: [VIEW]

Runways:

RWY identifierQFULength (ft)Width (ft)SurfaceLDA (ft)
16L158°12303252UNK
34R338°12303252UNK
16R158°12297197UNK
34L338°12297197UNK

Airport contact information

Address: Doha Qatar

Satellite view of OTBH